.
WxDataArchive / Data Records for 2015-08-13
2015-08-12 August 2015 2015-08-14

Data Records for Thursday, 13 August 2015

Time	Temp	Chill	HIndex	Humid	Dewpt	 Wind 	HiWind	WindDir	Rain 	Barom
-----	----	-----	------	-----	-----	------	------	-------	-----	-----
00:00	64.0	64.0	64.0	79	57.4	0	0	---	0.00	30.081 
00:05	64.0	64.0	64.0	79	57.4	0	0	---	0.00	30.081 
00:10	63.9	63.9	63.9	79	57.3	0	0	---	0.00	30.081 
00:15	63.9	63.9	63.9	79	57.3	0	0	---	0.00	30.073 
00:20	63.7	63.7	63.7	79	57.1	0	0	---	0.00	30.073 
00:25	63.5	63.5	63.5	79	56.9	0	0	---	0.00	30.073 
00:30	63.4	63.4	63.4	80	57.1	0	0	---	0.00	30.071 
00:35	63.2	63.2	63.2	80	56.9	0	0	---	0.00	30.071 
00:40	62.7	62.7	62.7	81	56.8	0	0	---	0.00	30.071 
00:45	62.4	62.4	62.4	82	56.8	0	0	---	0.00	30.072 
00:50	62.3	62.3	62.3	82	56.7	0	0	---	0.00	30.072 
00:55	62.0	62.0	62.0	83	56.8	0	0	---	0.00	30.072 
01:00	61.8	61.8	61.8	83	56.6	0	0	---	0.00	30.072 
01:05	61.6	61.6	61.6	84	56.7	0	0	---	0.00	30.072 
01:10	61.3	61.3	61.3	84	56.4	0	0	---	0.00	30.072 
01:15	61.2	61.2	61.2	84	56.3	0	0	---	0.00	30.075 
01:20	61.0	61.0	61.0	85	56.5	0	0	---	0.00	30.075 
01:25	60.9	60.9	60.9	85	56.4	0	0	---	0.00	30.075 
01:30	60.7	60.7	60.7	86	56.5	0	0	---	0.00	30.072 
01:35	60.4	60.4	60.4	86	56.2	0	0	---	0.00	30.072 
01:40	60.2	60.2	60.2	87	56.3	0	0	---	0.00	30.072 
01:45	60.1	60.1	60.1	87	56.2	0	0	---	0.00	30.073 
01:50	59.9	59.9	59.9	88	56.3	0	0	---	0.00	30.073 
01:55	59.9	59.9	59.9	88	56.3	0	0	---	0.00	30.073 
02:00	59.9	59.9	59.9	88	56.3	0	0	---	0.00	30.070 
02:05	59.8	59.8	59.8	88	56.2	0	0	---	0.00	30.070 
02:10	59.8	59.8	59.8	88	56.2	0	0	---	0.00	30.070 
02:15	59.6	59.6	59.6	89	56.4	0	0	---	0.00	30.069 
02:20	59.6	59.6	59.6	89	56.4	0	0	---	0.00	30.069 
02:25	59.5	59.5	59.5	89	56.3	0	0	---	0.00	30.069 
02:30	59.5	59.5	59.5	89	56.3	0	0	---	0.00	30.069 
02:35	59.5	59.5	59.5	90	56.6	0	0	---	0.00	30.069 
02:40	59.3	59.3	59.3	90	56.4	0	0	---	0.00	30.069 
02:45	59.3	59.3	59.3	90	56.4	0	0	---	0.00	30.076 
02:50	59.2	59.2	59.2	90	56.3	0	0	---	0.00	30.076 
02:55	59.2	59.2	59.2	90	56.3	0	0	---	0.00	30.076 
03:00	59.0	59.0	59.0	90	56.1	0	0	---	0.00	30.075 
03:05	59.2	59.2	59.2	91	56.6	0	0	---	0.00	30.075 
03:10	59.2	59.2	59.2	91	56.6	0	0	---	0.00	30.075 
03:15	59.2	59.2	59.2	91	56.6	0	0	---	0.00	30.076 
03:20	59.0	59.0	59.0	91	56.4	0	0	---	0.00	30.076 
03:25	58.9	58.9	58.9	91	56.3	0	0	---	0.00	30.076 
03:30	58.9	58.9	58.9	91	56.3	0	0	---	0.00	30.072 
03:35	58.7	58.7	58.7	91	56.1	0	0	---	0.00	30.072 
03:40	58.7	58.7	58.7	91	56.1	0	0	---	0.00	30.072 
03:45	58.7	58.7	58.7	91	56.1	0	0	---	0.00	30.069 
03:50	58.6	58.6	58.6	92	56.3	0	0	---	0.00	30.069 
03:55	58.4	58.4	58.4	92	56.1	0	0	---	0.00	30.069 
04:00	58.4	58.4	58.4	92	56.1	0	0	---	0.00	30.069 
04:05	58.4	58.4	58.4	92	56.1	0	0	---	0.00	30.069 
04:10	58.4	58.4	58.4	92	56.1	0	0	---	0.00	30.069 
04:15	58.4	58.4	58.4	92	56.1	0	0	---	0.00	30.072 
04:20	58.4	58.4	58.4	92	56.1	0	0	---	0.00	30.072 
04:25	58.3	58.3	58.3	92	56.0	0	0	---	0.00	30.072 
04:30	58.3	58.3	58.3	92	56.0	0	0	---	0.00	30.070 
04:35	58.1	58.1	58.1	92	55.8	0	0	---	0.00	30.070 
04:40	58.1	58.1	58.1	92	55.8	0	0	---	0.00	30.070 
04:45	58.0	58.0	58.0	92	55.7	0	0	---	0.00	30.073 
04:50	58.0	58.0	58.0	92	55.7	0	0	---	0.00	30.073 
04:55	57.8	57.8	57.8	92	55.5	0	0	---	0.00	30.073 
05:00	57.8	57.8	57.8	93	55.8	0	0	---	0.00	30.074 
05:05	57.6	57.6	57.6	93	55.6	0	0	---	0.00	30.074 
05:10	57.6	57.6	57.6	93	55.6	0	0	---	0.00	30.074 
05:15	57.5	57.5	57.5	93	55.5	0	0	---	0.00	30.072 
05:20	57.5	57.5	57.5	93	55.5	0	0	---	0.00	30.072 
05:25	57.5	57.5	57.5	93	55.5	0	0	---	0.00	30.072 
05:30	57.5	57.5	57.5	93	55.5	0	0	---	0.00	30.069 
05:35	57.3	57.3	57.3	93	55.3	0	0	---	0.00	30.069 
05:40	57.3	57.3	57.3	93	55.3	0	0	---	0.00	30.069 
05:45	57.5	57.5	57.5	93	55.5	0	0	---	0.00	30.070 
05:50	57.5	57.5	57.5	93	55.5	0	0	---	0.00	30.070 
05:55	57.5	57.5	57.5	93	55.5	0	0	---	0.00	30.070 
06:00	57.5	57.5	57.5	93	55.5	0	0	---	0.00	30.070 
06:05	57.5	57.5	57.5	93	55.5	0	0	---	0.00	30.070 
06:10	57.6	57.6	57.6	93	55.6	0	0	---	0.00	30.070 
06:15	57.6	57.6	57.6	93	55.6	0	0	---	0.00	30.081 
06:20	57.6	57.6	57.6	93	55.6	0	0	---	0.00	30.081 
06:25	57.8	57.8	57.8	94	56.1	0	0	---	0.00	30.081 
06:30	57.8	57.8	57.8	94	56.1	0	0	---	0.00	30.092 
06:35	58.0	58.0	58.0	94	56.3	0	0	---	0.00	30.092 
06:40	58.0	58.0	58.0	94	56.3	0	0	---	0.00	30.092 
06:45	58.0	58.0	58.0	94	56.3	0	0	---	0.00	30.090 
06:50	58.0	58.0	58.0	94	56.3	0	0	---	0.00	30.090 
06:55	58.0	58.0	58.0	94	56.3	0	0	---	0.00	30.090 
07:00	57.8	57.8	57.8	94	56.1	0	0	---	0.00	30.095 
07:05	57.8	57.8	57.8	94	56.1	0	0	---	0.00	30.095 
07:10	58.0	58.0	58.0	94	56.3	0	0	---	0.00	30.095 
07:15	58.0	58.0	58.0	94	56.3	0	0	---	0.00	30.094 
07:20	58.0	58.0	58.0	94	56.3	0	0	---	0.00	30.094 
07:25	58.0	58.0	58.0	94	56.3	0	0	---	0.00	30.094 
07:30	58.0	58.0	58.0	94	56.3	0	0	---	0.00	30.103 
07:35	58.1	58.1	58.1	94	56.4	0	0	---	0.00	30.103 
07:40	58.4	58.4	58.4	94	56.7	0	0	---	0.00	30.103 
07:45	58.6	58.6	58.6	94	56.9	0	0	---	0.00	30.104 
07:50	58.7	58.7	58.7	94	57.0	0	0	---	0.00	30.104 
07:55	59.2	59.2	59.2	95	57.8	0	0	---	0.00	30.104 
08:00	59.9	59.9	59.9	95	58.5	0	0	---	0.00	30.102 
08:05	60.5	60.5	60.5	95	59.1	0	0	---	0.00	30.102 
08:10	61.2	61.2	61.2	94	59.5	0	0	---	0.00	30.102 
08:15	62.0	62.0	62.0	94	60.2	0	0	---	0.00	30.104 
08:20	62.4	62.4	62.4	94	60.6	0	0	---	0.00	30.104 
08:25	63.1	63.1	63.1	93	61.0	0	0	---	0.00	30.104 
08:30	63.5	63.5	63.5	92	61.1	0	0	---	0.00	30.101 
08:35	64.2	64.2	64.2	92	61.8	0	0	---	0.00	30.101 
08:40	64.8	64.8	64.8	90	61.8	0	0	---	0.00	30.101 
08:45	65.6	65.6	65.6	88	61.9	0	0	---	0.00	30.097 
08:50	66.4	66.4	66.4	86	62.1	0	0	---	0.00	30.097 
08:55	66.9	66.9	66.9	83	61.6	0	0	---	0.00	30.097 
09:00	67.6	67.6	67.6	79	60.8	0	0	---	0.00	30.090 
09:05	68.1	68.1	68.1	75	59.9	0	0	---	0.00	30.090 
09:10	68.4	68.4	68.4	73	59.4	0	0	---	0.00	30.090 
09:15	68.9	68.9	68.9	71	59.1	0	0	---	0.00	30.100 
09:20	69.4	69.4	69.4	70	59.2	0	0	---	0.00	30.100 
09:25	69.9	69.9	69.9	69	59.3	0	0	---	0.00	30.100 
09:30	69.9	69.9	69.9	67	58.4	0	0	---	0.00	30.099 
09:35	70.1	70.1	70.1	66	58.2	0	0	---	0.00	30.099 
09:40	70.6	70.6	70.6	65	58.2	0	0	---	0.00	30.099 
09:45	70.9	70.9	70.9	64	58.1	0	0	---	0.00	30.102 
09:50	71.5	71.5	71.5	63	58.2	0	0	---	0.00	30.102 
09:55	71.8	71.8	71.8	62	58.1	0	0	---	0.00	30.102 
10:00	72.3	72.3	72.3	60	57.6	0	0	---	0.00	30.101 
10:05	72.8	72.8	72.8	60	58.1	0	0	---	0.00	30.101 
10:10	73.5	73.5	73.5	59	58.3	0	0	---	0.00	30.101 
10:15	73.9	73.9	73.9	58	58.2	0	0	---	0.00	30.102 
10:20	74.2	74.2	74.2	58	58.5	0	0	---	0.00	30.102 
10:25	74.2	74.2	74.2	56	57.5	0	0	---	0.00	30.102 
10:30	74.4	74.4	74.4	56	57.7	0	0	---	0.00	30.105 
10:35	74.6	74.6	74.6	57	58.3	0	0	---	0.00	30.105 
10:40	75.1	75.1	77.5	57	58.8	0	0	---	0.00	30.105 
10:45	74.9	74.9	74.9	56	58.1	1	4	292	0.00	30.103 
10:50	74.7	74.7	74.7	55	57.4	1	4	292	0.00	30.103 
10:55	74.9	74.9	74.9	54	57.1	0	3	292	0.00	30.103 
11:00	74.9	74.9	74.9	54	57.1	1	3	292	0.00	30.101 
11:05	74.9	74.9	74.9	54	57.1	1	3	292	0.00	30.101 
11:10	75.3	75.3	77.7	54	57.5	1	4	292	0.00	30.101 
11:15	75.8	75.8	78.0	54	57.9	1	3	292	0.00	30.098 
11:20	76.3	76.3	78.3	54	58.4	0	3	292	0.00	30.098 
11:25	76.8	76.8	78.5	52	57.8	1	3	338	0.00	30.098 
11:30	77.2	77.2	78.7	51	57.6	1	3	338	0.00	30.097 
11:35	77.6	77.6	79.0	51	58.0	1	4	338	0.00	30.097 
11:40	77.4	77.4	78.9	53	58.9	1	3	315	0.00	30.097 
11:45	77.6	77.6	79.1	53	59.1	0	3	315	0.00	30.090 
11:50	77.9	77.9	79.3	54	59.9	0	3	22	0.00	30.090 
11:55	77.9	77.9	79.3	52	58.8	1	3	292	0.00	30.090 
12:00	78.1	78.1	79.4	51	58.5	0	2	0	0.00	30.094 
12:05	78.6	78.6	79.8	53	60.0	0	1	0	0.00	30.094 
12:10	79.2	79.2	80.4	53	60.6	1	4	68	0.00	30.094 
12:15	79.0	79.0	79.9	49	58.2	1	4	292	0.00	30.094 
12:20	78.6	78.6	79.6	49	57.8	2	5	292	0.00	30.094 
12:25	78.5	78.5	79.6	51	58.8	1	3	270	0.00	30.094 
12:30	79.0	79.0	80.0	51	59.3	1	3	270	0.00	30.090 
12:35	78.6	78.6	79.8	52	59.5	2	6	270	0.00	30.090 
12:40	74.6	74.6	74.6	66	62.5	1	3	292	0.00	30.090 
12:45	70.3	70.3	70.3	79	63.5	1	3	292	0.00	30.092 
12:50	68.3	68.3	68.3	84	63.3	1	3	292	0.00	30.092 
12:55	67.8	67.8	67.8	88	64.1	1	2	292	0.00	30.092 
13:00	67.3	67.3	67.3	89	63.9	1	5	292	0.00	30.093 
13:05	67.6	67.6	67.6	92	65.2	0	3	292	0.00	30.093 
13:10	67.1	67.1	67.1	92	64.7	2	5	270	0.00	30.093 
13:15	67.3	67.3	67.3	94	65.5	0	4	292	0.00	30.089 
13:20	67.6	67.6	67.6	94	65.8	0	3	90	0.00	30.089 
13:25	66.9	66.9	66.9	94	65.1	2	4	292	0.00	30.089 
13:30	67.1	67.1	67.1	94	65.3	0	1	292	0.00	30.087 
13:35	67.6	67.6	67.6	95	66.1	0	3	292	0.00	30.087 
13:40	67.9	67.9	67.9	94	66.1	0	2	292	0.00	30.087 
13:45	67.9	67.9	67.9	94	66.1	0	4	292	0.00	30.082 
13:50	67.6	67.6	67.6	94	65.8	2	4	270	0.00	30.082 
13:55	67.6	67.6	67.6	94	65.8	2	4	270	0.00	30.082 
14:00	68.3	68.3	68.3	94	66.5	1	3	270	0.00	30.081 
14:05	68.6	68.6	68.6	93	66.5	2	5	270	0.00	30.081 
14:10	68.9	68.9	68.9	93	66.8	1	4	270	0.00	30.081 
14:15	69.4	69.4	69.4	92	67.0	0	2	270	0.00	30.082 
14:20	69.8	69.8	69.8	92	67.4	1	3	270	0.00	30.082 
14:25	70.6	70.6	70.6	91	67.8	0	4	270	0.00	30.082 
14:30	71.5	71.5	71.5	86	67.1	1	3	270	0.00	30.075 
14:35	72.8	72.8	72.8	81	66.6	0	3	270	0.00	30.075 
14:40	74.6	74.6	74.6	68	63.3	2	5	292	0.00	30.075 
14:45	76.5	76.5	78.4	60	61.6	1	3	292	0.00	30.075 
14:50	77.7	77.7	79.2	55	60.2	2	5	292	0.00	30.075 
14:55	78.6	78.6	80.0	56	61.6	0	2	292	0.00	30.075 
15:00	79.6	79.6	80.7	53	60.9	1	3	292	0.00	30.073 
15:05	80.3	80.3	81.5	54	62.1	1	4	292	0.00	30.073 
15:10	80.9	80.9	81.8	51	61.0	1	3	292	0.00	30.073 
15:15	81.6	81.6	82.3	50	61.1	1	4	292	0.00	30.067 
15:20	82.0	82.0	82.6	49	60.9	2	5	292	0.00	30.067 
15:25	82.2	82.2	82.7	48	60.5	2	5	270	0.00	30.067 
15:30	82.4	82.4	83.2	50	61.9	1	4	270	0.00	30.063 
15:35	82.8	82.8	83.3	48	61.1	0	3	270	0.00	30.063 
15:40	83.4	83.4	84.0	48	61.6	0	3	270	0.00	30.063 
15:45	83.4	83.4	83.8	47	61.0	2	5	270	0.00	30.060 
15:50	83.2	83.2	83.8	48	61.4	1	4	270	0.00	30.060 
15:55	83.6	83.6	84.4	49	62.4	0	1	270	0.00	30.060 
16:00	84.0	84.0	84.5	47	61.6	1	6	270	0.00	30.051 
16:05	83.8	83.8	84.1	46	60.8	1	4	270	0.00	30.051 
16:10	83.2	83.2	83.4	46	60.2	2	5	270	0.00	30.051 
16:15	83.0	83.0	83.4	47	60.7	2	5	270	0.00	30.050 
16:20	83.2	83.2	83.6	47	60.8	2	4	315	0.00	30.050 
16:25	83.2	83.2	83.4	46	60.2	1	3	315	0.00	30.050 
16:30	83.4	83.4	83.8	47	61.0	2	4	292	0.00	30.050 
16:35	83.6	83.6	84.1	47	61.2	1	3	292	0.00	30.050 
16:40	84.0	84.0	84.5	47	61.6	0	1	292	0.00	30.050 
16:45	84.0	84.0	84.3	46	61.0	1	4	270	0.00	30.047 
16:50	83.6	83.6	83.9	46	60.6	3	6	270	0.00	30.047 
16:55	83.2	83.2	83.8	48	61.4	1	3	270	0.00	30.047 
17:00	83.2	83.2	83.4	46	60.2	2	7	270	0.00	30.049 
17:05	83.4	83.4	83.8	47	61.0	1	4	270	0.00	30.049 
17:10	83.8	83.8	84.1	46	60.8	0	6	270	0.00	30.049 
17:15	83.8	83.8	84.1	46	60.8	2	5	292	0.00	30.047 
17:20	83.8	83.8	84.3	47	61.4	1	4	292	0.00	30.047 
17:25	84.0	84.0	84.3	46	61.0	1	4	292	0.00	30.047 
17:30	84.0	84.0	84.3	46	61.0	1	4	292	0.00	30.046 
17:35	83.8	83.8	84.5	48	62.0	1	3	292	0.00	30.046 
17:40	84.0	84.0	84.5	47	61.6	1	3	292	0.00	30.046 
17:45	84.0	84.0	84.7	48	62.2	0	2	292	0.00	30.042 
17:50	83.6	83.6	84.2	48	61.8	0	1	292	0.00	30.042 
17:55	83.4	83.4	84.2	49	62.2	1	4	292	0.00	30.042 
18:00	82.8	82.8	83.3	48	61.1	1	4	292	0.00	30.038 
18:05	82.2	82.2	82.8	49	61.1	0	1	292	0.00	30.038 
18:10	82.0	82.0	82.8	50	61.5	0	3	292	0.00	30.038 
18:15	82.2	82.2	83.0	50	61.7	1	3	292	0.00	30.040 
18:20	82.4	82.4	83.4	51	62.4	0	1	292	0.00	30.040 
18:25	82.4	82.4	83.0	49	61.3	0	1	292	0.00	30.040 
18:30	82.2	82.2	83.0	50	61.7	0	2	292	0.00	30.041 
18:35	82.0	82.0	82.8	50	61.5	1	3	292	0.00	30.041 
18:40	81.8	81.8	82.6	50	61.3	1	4	292	0.00	30.041 
18:45	81.8	81.8	82.6	50	61.3	0	3	292	0.00	30.041 
18:50	81.8	81.8	82.7	51	61.9	0	3	292	0.00	30.041 
18:55	81.6	81.6	82.5	51	61.7	1	5	292	0.00	30.041 
19:00	81.6	81.6	82.5	51	61.7	1	3	292	0.00	30.038 
19:05	81.4	81.4	82.3	51	61.5	1	3	292	0.00	30.038 
19:10	81.2	81.2	82.2	52	61.9	1	2	292	0.00	30.038 
19:15	81.2	81.2	82.3	53	62.4	0	2	292	0.00	30.036 
19:20	81.1	81.1	82.1	52	61.8	0	4	292	0.00	30.036 
19:25	80.9	80.9	82.0	53	62.1	0	3	292	0.00	30.036 
19:30	80.7	80.7	81.7	52	61.4	1	4	292	0.00	30.038 
19:35	80.7	80.7	81.8	53	62.0	0	3	292	0.00	30.038 
19:40	80.3	80.3	81.5	54	62.1	0	1	292	0.00	30.038 
19:45	80.1	80.1	81.3	54	61.9	0	3	292	0.00	30.036 
19:50	79.8	79.8	81.1	55	62.2	0	1	292	0.00	30.036 
19:55	79.6	79.6	80.9	55	62.0	1	3	292	0.00	30.036 
20:00	79.2	79.2	80.5	55	61.6	0	1	292	0.00	30.037 
20:05	79.0	79.0	80.4	56	61.9	0	1	292	0.00	30.037 
20:10	78.8	78.8	80.3	57	62.3	0	0	---	0.00	30.037 
20:15	78.5	78.5	80.0	57	62.0	0	0	---	0.00	30.033 
20:20	78.3	78.3	79.8	57	61.8	0	0	---	0.00	30.033 
20:25	78.1	78.1	79.6	57	61.6	0	1	292	0.00	30.033 
20:30	78.1	78.1	79.7	58	62.1	0	0	---	0.00	30.030 
20:35	77.9	77.9	79.5	58	61.9	0	0	---	0.00	30.030 
20:40	77.6	77.6	79.2	58	61.6	0	0	---	0.00	30.030 
20:45	77.4	77.4	79.1	59	61.9	0	0	---	0.00	30.029 
20:50	77.2	77.2	78.9	59	61.7	0	0	---	0.00	30.029 
20:55	77.0	77.0	78.8	60	62.0	0	0	---	0.00	30.029 
21:00	76.8	76.8	78.6	60	61.8	0	0	---	0.00	30.032 
21:05	76.7	76.7	78.5	60	61.7	0	0	---	0.00	30.032 
21:10	76.5	76.5	78.4	61	62.0	0	0	---	0.00	30.032 
21:15	76.3	76.3	78.2	61	61.8	0	0	---	0.00	30.029 
21:20	76.0	76.0	78.0	62	62.0	0	0	---	0.00	30.029 
21:25	75.8	75.8	77.8	62	61.8	0	0	---	0.00	30.029 
21:30	75.8	75.8	77.8	62	61.8	0	0	---	0.00	30.033 
21:35	75.6	75.6	77.6	63	62.1	0	0	---	0.00	30.033 
21:40	75.4	75.4	77.4	64	62.4	0	0	---	0.00	30.033 
21:45	75.3	75.3	77.4	64	62.3	0	0	---	0.00	30.041 
21:50	75.1	75.1	77.1	65	62.5	0	0	---	0.00	30.041 
21:55	75.1	75.1	77.1	65	62.5	0	0	---	0.00	30.041 
22:00	74.9	74.9	74.9	65	62.3	0	0	---	0.00	30.043 
22:05	74.7	74.7	74.7	66	62.6	0	0	---	0.00	30.043 
22:10	74.6	74.6	74.6	66	62.5	0	0	---	0.00	30.043 
22:15	74.6	74.6	74.6	67	62.9	0	0	---	0.00	30.045 
22:20	74.4	74.4	74.4	67	62.7	0	0	---	0.00	30.045 
22:25	74.2	74.2	74.2	68	62.9	0	0	---	0.00	30.045 
22:30	74.2	74.2	74.2	68	62.9	0	0	---	0.00	30.045 
22:35	74.0	74.0	74.0	69	63.2	0	0	---	0.00	30.045 
22:40	74.0	74.0	74.0	69	63.2	0	0	---	0.00	30.045 
22:45	74.0	74.0	74.0	69	63.2	0	0	---	0.00	30.046 
22:50	74.0	74.0	74.0	69	63.2	0	0	---	0.00	30.046 
22:55	74.0	74.0	74.0	70	63.6	0	0	---	0.00	30.046 
23:00	74.0	74.0	74.0	70	63.6	0	0	---	0.00	30.048 
23:05	73.9	73.9	73.9	71	63.9	0	0	---	0.00	30.048 
23:10	73.7	73.7	73.7	71	63.7	0	0	---	0.00	30.048 
23:15	73.7	73.7	73.7	72	64.1	0	0	---	0.00	30.044 
23:20	73.5	73.5	73.5	72	63.9	0	0	---	0.00	30.044 
23:25	73.3	73.3	73.3	72	63.7	0	0	---	0.00	30.044 
23:30	73.2	73.2	73.2	72	63.6	0	0	---	0.00	30.051 
23:35	73.0	73.0	73.0	73	63.8	0	0	---	0.00	30.051 
23:40	72.7	72.7	72.7	73	63.5	0	0	---	0.00	30.051 
23:45	72.5	72.5	72.5	74	63.7	0	0	---	0.00	30.056 
23:50	72.3	72.3	72.3	74	63.5	0	0	---	0.00	30.056 
23:55	72.1	72.1	72.1	74	63.3	0	0	---	0.00	30.056 

CoCoRaHS
IN-AL-39
A2 Web Hosting
Creative Commons License
GoDaddy
search engine by freefind advanced

loaded 2018-11-17 06:42:30 • last modified 2010-11-18 10:43:29
Privacy PolicyDisclaimer
• wx.awcolley.com is powered by PmWiki v.2002016 •
• all content (unless otherwise noted) © 2018 A W Colley